MMZOMMPR

Guest
Details From MMZO - PLAYA DE ORO INTL
To MMPR - LICENCIADO GUSTAVO DIAZ ORDAZ INTL
Flight Number -
Tags generated
Created
Modified
Stats Distance 100 nm / 186 km
Max Altitude 10,800 ft / 3,292 m
Waypoints 4
Social Downloads 0
Likes 0
Share VATSIM

Download

Looking for another format? Having issues loading an existing format? Contact us
Advertisement - Login to hide

Notes

Basic altitude profile: - Ascent Rate: 2500ft/min - Ascent Speed: 250kts - Cruise Altitude: 35000ft - Cruise Speed: 420kts - Descent Rate: 1500ft/min - Descent Speed: 250kts Options: - Use NATs: yes - Use PACOTS: yes - Use low airways: yes - Use high airways: yes

Route

MMZO MAREX V1 PVR MMPR

ID Type Via Altitude (ft/m) Position (lat/lon) Dist (leg/tot) Name
O MMZO APT - 0 / 0 19.14478 / -104.55863 - / 0 nm PLAYA DE ORO INTL
MAREX FIX - 10,800 / 3,292 19.90602 / -104.91031 49 / 49 nm
PVR VOR V1 (AWY-LO) 10,000 / 3,048 20.67309 / -105.25750 50 / 99 nm VALLARTA VOR-DME
O MMPR APT - 0 / 0 20.68007 / -105.25415 0 / 100 nm LICENCIADO GUSTAVO DIAZ ORDAZ INTL

Altitude Profile

Advertisement - Login to hide

MMZO

Details ICAO MMZO (ZLO)
Name PLAYA DE ORO INTERNATIONAL
Region Mexico
Timezone America/Mexico_City (UTC-5.0)
Stats Elevation 29 ft / 9 m (AMSL)
Location 19.144700° -104.558000°
Runways 1
Magnetic Variation 6.484° E

METAR

Not found

TAF

TAF MMZO 240437Z 2406/2506 00000KT P6SM SCT250 FM241800 24015KT P6SM SCT020 SCT240 BECMG 2502/2504 33004KT

Decode

Departure Runways

ID Width Length Bearing (true/mag) Surface Threshold Overrun Markings Lighting
10 148 ft / 45 m 7,225 ft / 2,202 m 106.18° / 99.70° ASPHALT 0 ft / 0 m 0 ft / 0 m APP CENTERLINE EDGE THRESHOLD MALSF
28 148 ft / 45 m 7,225 ft / 2,202 m 286.19° / 279.70° ASPHALT 0 ft / 0 m 0 ft / 0 m APP CENTERLINE EDGE THRESHOLD MALSF

MMPR

Details ICAO MMPR (PVR)
Name Lic. Gustavo Diaz Ordaz Intl
Region Mexico
Timezone America/Mexico_City (UTC-5.0)
Stats Elevation 20 ft / 6 m (AMSL)
Location 20.680100° -105.254000°
Runways 1
Magnetic Variation 6.749° E

METAR

Not found

TAF

TAF MMPR 241025Z 2412/2518 00000KT P6SM BKN025 BKN250 TX28/2421Z TN23/2412Z FM241800 22012KT P6SM SCT025 SCT250 FM250600 25005KT P6SM SCT250 BECMG 2510/2512 00000KT

Decode

Destination Runways

ID Width Length Bearing (true/mag) Surface Threshold Overrun Markings Lighting
04 148 ft / 45 m 10,259 ft / 3,127 m 47.06° / 40.31° ASPHALT 0 ft / 0 m 187 ft / 57 m PREC-APP CENTERLINE EDGE THRESHOLD SALS REIL-OMNI
22 148 ft / 45 m 10,259 ft / 3,127 m 227.07° / 220.32° ASPHALT 0 ft / 0 m 187 ft / 57 m PREC-APP CENTERLINE EDGE THRESHOLD REIL-OMNI

Popular Alternatives